Time;durP1;ratioP1;P1;durP2;ratioP2;P2;SDS_P1;SDS_P2;PMS_P1;PMS_P2;Temp;Humidity;BMP_temperature;BMP_pressure;BME280_temperature;BME280_humidity;BME280_pressure;Samples;Min_cycle;Max_cycle;Signal;HPM_P1;HPM_P2
2023/06/11 00:00:48;;;;;;;0.20;0.20;;;;;;;21.59;52.44;101615.53;5092055;28;20429;-87
2023/06/11 00:03:52;;;;;;;0.00;0.00;;;;;;;21.56;52.91;101610.34;5086747;28;20125;-84
2023/06/11 00:06:17;;;;;;;2.72;0.60;;;;;;;21.49;51.29;101614.28;5083114;28;20478;-84
2023/06/11 00:08:46;;;;;;;0.00;0.00;;;;;;;21.47;51.19;101610.78;5087720;28;20066;-85
2023/06/11 00:11:17;;;;;;;0.10;0.10;;;;;;;21.47;50.90;101610.78;5093726;28;20286;-85
2023/06/11 00:17:04;;;;;;;0.10;0.10;;;;;;;21.46;50.45;101609.91;5069268;28;20036;-84
2023/06/11 00:19:30;;;;;;;0.03;0.03;;;;;;;21.44;50.63;101602.88;5086597;28;20019;-84
2023/06/11 00:22:20;;;;;;;1.85;0.52;;;;;;;21.43;50.37;101606.50;5089878;28;20056;-85
2023/06/11 00:24:46;;;;;;;0.25;0.25;;;;;;;21.42;50.09;101607.47;5066883;28;20040;-84
2023/06/11 00:27:17;;;;;;;0.32;0.32;;;;;;;21.43;49.72;101604.72;5093576;28;20042;-85
2023/06/11 00:29:46;;;;;;;0.83;0.83;;;;;;;21.42;50.01;101604.75;5084470;28;20034;-85
2023/06/11 00:32:19;;;;;;;0.00;0.00;;;;;;;21.44;49.69;101602.88;5091567;28;20393;-84
2023/06/11 00:34:46;;;;;;;0.38;0.38;;;;;;;21.45;49.70;101599.22;5077290;28;20040;-87
2023/06/11 00:37:13;;;;;;;0.15;0.15;;;;;;;21.46;49.35;101596.44;5081981;28;20375;-84
2023/06/11 00:39:42;;;;;;;0.38;0.38;;;;;;;21.45;50.57;101597.38;5087725;28;20111;-85
2023/06/11 00:42:10;;;;;;;0.05;0.05;;;;;;;21.44;50.27;101597.47;5089666;28;20395;-86
2023/06/11 00:45:15;;;;;;;0.10;0.10;;;;;;;21.46;50.14;101592.88;5095352;28;20032;-85
2023/06/11 00:47:58;;;;;;;0.08;0.08;;;;;;;21.44;50.56;101595.63;5095159;28;20482;-85
2023/06/11 00:50:31;;;;;;;0.10;0.10;;;;;;;21.39;50.68;101596.84;5093329;28;20028;-85
2023/06/11 00:53:02;;;;;;;0.00;0.00;;;;;;;21.36;50.14;101597.00;5093893;28;20039;-86
2023/06/11 00:59:11;;;;;;;0.10;0.10;;;;;;;21.30;51.40;101593.69;5022988;28;20094;-84
2023/06/11 01:06:01;;;;;;;0.57;0.57;;;;;;;21.27;52.20;101587.59;5091658;28;20052;-83
2023/06/11 01:13:03;;;;;;;0.13;0.13;;;;;;;21.19;52.72;101595.22;5035432;28;20037;-84
2023/06/11 01:16:26;;;;;;;0.00;0.00;;;;;;;21.17;51.81;101584.50;4969827;28;20035;-85
2023/06/11 01:19:33;;;;;;;;;;;;;;;21.19;51.71;101587.16;4893151;29;20032;-82
2023/06/11 01:26:38;;;;;;;;;;;;;;;;;;;;;
2023/06/11 01:36:38;;;;;;;;;;;;;;;;;;;;;
2023/06/11 01:39:31;;;;;;;0.00;0.00;;;;;;;20.96;52.71;101584.69;4809016;29;20041;-85
2023/06/11 01:41:58;;;;;;;0.68;0.55;;;;;;;20.89;52.57;101587.81;4762147;29;20055;-86
2023/06/11 01:44:25;;;;;;;0.20;0.20;;;;;;;20.87;52.23;101587.84;4822325;29;20129;-85
2023/06/11 01:47:39;;;;;;;0.10;0.10;;;;;;;20.95;52.46;101584.78;4864623;29;20054;-84
2023/06/11 01:50:38;;;;;;;0.00;0.00;;;;;;;20.93;52.46;101582.16;4867663;29;20472;-84
2023/06/11 01:53:16;;;;;;;0.00;0.00;;;;;;;20.85;52.96;101587.09;4911151;29;20429;-84
2023/06/11 01:55:56;;;;;;;0.00;0.00;;;;;;;20.87;53.21;101585.16;4932042;29;20071;-83
2023/06/11 01:58:46;;;;;;;0.10;0.10;;;;;;;20.89;52.85;101588.66;4939501;28;20045;-83
2023/06/11 02:01:12;;;;;;;0.10;0.10;;;;;;;20.79;52.87;101579.31;4987451;28;20065;-83
2023/06/11 02:03:40;;;;;;;0.00;0.00;;;;;;;20.76;53.63;101587.53;5024974;28;20034;-85
2023/06/11 02:06:07;;;;;;;0.52;0.52;;;;;;;20.72;54.27;101586.81;5014169;28;20044;-85
2023/06/11 02:08:33;;;;;;;0.10;0.10;;;;;;;20.69;54.20;101590.50;5010041;28;20034;-86
2023/06/11 02:11:05;;;;;;;0.10;0.10;;;;;;;20.69;53.79;101593.22;5097345;28;20040;-85
2023/06/11 02:13:34;;;;;;;0.20;0.20;;;;;;;20.67;54.28;101597.81;5095362;28;20073;-86
2023/06/11 02:16:03;;;;;;;0.00;0.00;;;;;;;20.65;54.31;101591.63;5097770;28;20078;-85
2023/06/11 02:18:29;;;;;;;0.10;0.10;;;;;;;20.63;54.34;101590.81;5093806;28;20024;-86
2023/06/11 02:20:58;;;;;;;0.10;0.10;;;;;;;20.61;53.89;101595.44;5097438;28;20028;-87
2023/06/11 02:23:31;;;;;;;0.00;0.00;;;;;;;20.63;55.05;101587.28;5100075;28;20031;-86
2023/06/11 02:25:57;;;;;;;0.10;0.10;;;;;;;20.60;54.84;101591.00;5096065;28;20134;-87
2023/06/11 02:28:46;;;;;;;0.10;0.10;;;;;;;20.62;54.18;101588.22;5092581;28;20029;-86
2023/06/11 02:31:23;;;;;;;0.10;0.10;;;;;;;20.62;54.34;101591.81;5094327;28;20032;-86
2023/06/11 02:33:51;;;;;;;0.10;0.10;;;;;;;20.62;53.85;101596.28;5101941;28;20110;-84
2023/06/11 02:36:21;;;;;;;0.10;0.10;;;;;;;20.62;53.52;101589.09;5098951;28;20038;-84
2023/06/11 02:38:47;;;;;;;0.10;0.10;;;;;;;20.63;53.80;101592.66;5102854;28;20036;-86
2023/06/11 02:41:15;;;;;;;0.00;0.00;;;;;;;20.62;54.85;101591.81;5091428;28;20127;-86
2023/06/11 02:43:41;;;;;;;1.55;1.45;;;;;;;20.59;54.11;101591.94;5099049;28;20050;-85
2023/06/11 02:46:10;;;;;;;0.10;0.10;;;;;;;20.60;53.86;101585.59;5094033;28;20532;-87
2023/06/11 02:48:39;;;;;;;0.10;0.10;;;;;;;20.58;55.33;101584.81;5085353;28;20032;-85
2023/06/11 02:51:25;;;;;;;0.20;0.20;;;;;;;20.59;55.11;101586.56;5097910;28;22000;-85
2023/06/11 02:54:16;;;;;;;0.10;0.10;;;;;;;20.63;53.84;101590.81;5094216;28;20024;-86
2023/06/11 02:56:42;;;;;;;0.10;0.10;;;;;;;20.57;53.89;101587.59;5094874;28;20028;-85
2023/06/11 02:59:08;;;;;;;0.17;0.17;;;;;;;20.56;54.32;101589.41;5089260;28;20099;-85
2023/06/11 03:01:34;;;;;;;0.00;0.00;;;;;;;20.55;54.11;101590.34;5095854;28;20039;-85
2023/06/11 03:04:01;;;;;;;0.00;0.00;;;;;;;20.55;54.78;101590.34;5090328;28;20029;-84
2023/06/11 03:06:29;;;;;;;0.20;0.20;;;;;;;20.55;54.34;101590.34;5092397;28;20024;-85
2023/06/11 03:08:55;;;;;;;0.63;0.63;;;;;;;20.53;54.65;101581.47;5100634;28;20497;-84
2023/06/11 03:11:25;;;;;;;0.20;0.20;;;;;;;20.50;55.05;101578.97;5095158;28;20036;-85
2023/06/11 03:13:52;;;;;;;0.32;0.30;;;;;;;20.48;55.00;101583.53;5095638;28;20032;-85
2023/06/11 03:16:23;;;;;;;0.10;0.10;;;;;;;20.48;54.47;101586.22;5093440;28;20035;-85
2023/06/11 03:18:51;;;;;;;0.52;0.52;;;;;;;20.47;54.81;101582.66;5092282;28;20036;-85
2023/06/11 03:21:21;;;;;;;0.28;0.28;;;;;;;20.47;55.24;101576.41;5094641;28;20030;-85
2023/06/11 03:23:49;;;;;;;0.28;0.28;;;;;;;20.43;55.52;101586.44;5097272;28;20088;-84
2023/06/11 03:26:18;;;;;;;0.03;0.03;;;;;;;20.44;55.21;101585.50;5093130;28;20032;-86
2023/06/11 03:28:44;;;;;;;0.20;0.20;;;;;;;20.42;55.10;101583.84;5094863;28;20028;-85
2023/06/11 03:31:11;;;;;;;0.10;0.10;;;;;;;20.41;55.20;101584.78;5099125;28;20045;-83
2023/06/11 03:33:37;;;;;;;0.10;0.10;;;;;;;20.41;55.53;101593.75;5096594;28;20036;-85
2023/06/11 03:36:06;;;;;;;0.10;0.10;;;;;;;20.42;55.21;101583.84;5092542;28;20028;-85
2023/06/11 03:38:32;;;;;;;0.00;0.00;;;;;;;20.42;54.87;101589.22;5097105;28;20036;-83
2023/06/11 03:40:59;;;;;;;0.05;0.05;;;;;;;20.41;54.95;101592.84;5096629;28;20028;-83
2023/06/11 03:43:25;;;;;;;0.00;0.00;;;;;;;20.42;55.74;101590.06;5096249;28;20067;-84
2023/06/11 03:45:54;;;;;;;0.25;0.25;;;;;;;20.43;56.18;101602.59;5091545;28;20024;-85
2023/06/11 03:48:26;;;;;;;0.10;0.10;;;;;;;20.43;55.58;101599.91;5092851;28;20037;-85
2023/06/11 03:50:52;;;;;;;0.17;0.17;;;;;;;20.43;55.17;101607.97;5090806;28;20053;-84
2023/06/11 03:53:20;;;;;;;0.10;0.10;;;;;;;20.44;55.84;101608.88;5094946;28;20606;-85
2023/06/11 03:55:46;;;;;;;0.40;0.40;;;;;;;20.43;55.76;101604.44;5096272;28;20043;-85
2023/06/11 03:58:12;;;;;;;0.25;0.15;;;;;;;20.44;56.44;101608.88;5085179;28;20033;-83
2023/06/11 04:00:38;;;;;;;0.08;0.08;;;;;;;20.44;55.06;101614.25;5088571;28;20078;-85
2023/06/11 04:03:04;;;;;;;0.15;0.15;;;;;;;20.43;56.47;101617.88;5097289;28;20028;-86
2023/06/11 04:05:36;;;;;;;0.30;0.30;;;;;;;20.43;55.82;101612.50;5090097;28;21274;-85
2023/06/11 04:08:02;;;;;;;0.00;0.00;;;;;;;20.42;55.80;101616.13;5088967;28;20028;-85
2023/06/11 04:10:28;;;;;;;0.00;0.00;;;;;;;20.42;55.82;101611.59;5091486;28;20338;-86
2023/06/11 04:12:55;;;;;;;0.10;0.10;;;;;;;20.44;56.17;101611.56;5093194;28;20025;-86
2023/06/11 04:15:22;;;;;;;0.00;0.00;;;;;;;20.45;55.76;101614.16;5095718;28;20025;-85
2023/06/11 04:17:48;;;;;;;0.03;0.03;;;;;;;20.47;55.91;101609.59;5096751;28;20028;-83
2023/06/11 04:20:14;;;;;;;0.10;0.10;;;;;;;20.48;56.27;101605.94;5091964;28;20088;-84
2023/06/11 04:22:40;;;;;;;0.10;0.10;;;;;;;20.51;55.99;101600.41;5097270;28;20051;-83
2023/06/11 04:25:07;;;;;;;0.03;0.03;;;;;;;20.54;56.67;101615.53;5102023;28;20039;-83
2023/06/11 04:27:36;;;;;;;0.10;0.10;;;;;;;20.56;56.34;101619.03;5103140;28;20118;-83
2023/06/11 04:30:03;;;;;;;0.10;0.10;;;;;;;20.58;56.00;101617.09;5109223;28;20028;-82
2023/06/11 04:32:34;;;;;;;0.08;0.08;;;;;;;20.59;56.54;101610.78;5107602;28;20059;-83
2023/06/11 04:35:02;;;;;;;0.20;0.20;;;;;;;20.60;56.44;101615.22;5106926;28;20293;-85
2023/06/11 04:37:30;;;;;;;0.03;0.03;;;;;;;20.63;56.24;101620.44;5099970;28;20027;-86
2023/06/11 04:40:04;;;;;;;0.20;0.20;;;;;;;20.66;57.36;101624.78;5099046;28;20024;-85
2023/06/11 04:42:30;;;;;;;0.55;0.55;;;;;;;20.67;56.80;101615.78;5102055;28;20050;-84
2023/06/11 04:44:56;;;;;;;0.08;0.08;;;;;;;20.69;56.63;101609.34;5100512;28;20024;-84
2023/06/11 04:47:24;;;;;;;0.15;0.15;;;;;;;20.74;57.43;101613.69;5099185;28;20035;-84
2023/06/11 04:49:51;;;;;;;0.43;0.30;;;;;;;20.78;56.73;101610.75;5103504;28;20020;-84
2023/06/11 04:52:17;;;;;;;0.10;0.10;;;;;;;20.82;56.79;101609.66;5101760;28;20031;-85
2023/06/11 04:54:45;;;;;;;0.10;0.10;;;;;;;20.88;55.83;101613.84;5100613;28;20036;-85
2023/06/11 04:57:13;;;;;;;0.10;0.10;;;;;;;20.92;56.79;101620.84;5099628;28;20039;-85
2023/06/11 04:59:42;;;;;;;0.30;0.30;;;;;;;20.98;56.55;101620.50;5099579;28;20039;-84
2023/06/11 05:02:17;;;;;;;0.00;0.00;;;;;;;21.01;56.86;101614.97;5092991;28;20047;-85
2023/06/11 05:04:43;;;;;;;2.05;0.73;;;;;;;21.06;56.81;101606.66;5094335;28;20105;-84
2023/06/11 05:07:13;;;;;;;0.10;0.10;;;;;;;21.13;56.45;101612.56;5093235;28;20036;-84
2023/06/11 05:09:42;;;;;;;0.22;0.17;;;;;;;21.17;56.31;101614.16;5098056;28;20028;-84
2023/06/11 05:12:09;;;;;;;0.73;0.73;;;;;;;21.21;56.84;101610.38;5095998;28;20049;-85
2023/06/11 05:14:37;;;;;;;0.03;0.03;;;;;;;21.27;56.58;101609.16;5098480;28;20101;-84
2023/06/11 05:17:20;;;;;;;0.25;0.25;;;;;;;21.30;56.96;101609.88;5096086;28;20074;-85
2023/06/11 05:19:56;;;;;;;0.10;0.10;;;;;;;21.40;57.08;101609.38;5094856;28;20097;-85
2023/06/11 05:22:34;;;;;;;0.10;0.10;;;;;;;21.43;56.35;101610.09;5097439;28;20066;-83
2023/06/11 05:25:02;;;;;;;0.85;0.52;;;;;;;21.46;56.32;101612.63;5094674;28;20028;-85
2023/06/11 05:27:29;;;;;;;0.20;0.20;;;;;;;21.49;56.32;101620.53;5092454;28;20394;-86
2023/06/11 05:29:58;;;;;;;0.43;0.43;;;;;;;21.58;56.74;101611.13;5092769;28;20024;-85
2023/06/11 05:32:36;;;;;;;0.05;0.05;;;;;;;21.65;56.70;101617.91;5096004;28;20040;-85
2023/06/11 05:35:02;;;;;;;0.10;0.10;;;;;;;21.68;56.47;101624.09;5097621;28;20111;-85
2023/06/11 05:37:29;;;;;;;0.10;0.10;;;;;;;21.74;56.46;101623.75;5103644;28;20036;-84
2023/06/11 05:39:57;;;;;;;0.08;0.08;;;;;;;21.79;56.09;101622.56;5099298;28;20043;-83
2023/06/11 05:42:23;;;;;;;0.25;0.25;;;;;;;21.84;57.08;101630.38;5108950;28;20035;-83
2023/06/11 05:44:50;;;;;;;0.10;0.10;;;;;;;21.89;56.18;101625.59;5102860;28;20038;-83
2023/06/11 05:47:17;;;;;;;0.20;0.20;;;;;;;21.94;55.69;101628.94;5095590;28;20091;-84
2023/06/11 05:49:43;;;;;;;0.10;0.10;;;;;;;22.00;55.87;101637.66;5098768;28;20067;-84
2023/06/11 05:52:09;;;;;;;0.25;0.25;;;;;;;22.04;55.80;101636.50;5105714;28;20035;-83
2023/06/11 05:54:35;;;;;;;0.35;0.35;;;;;;;22.07;56.08;101636.31;5100092;28;20035;-84
2023/06/11 05:57:02;;;;;;;0.77;0.77;;;;;;;22.12;55.64;101642.34;5093308;28;20093;-83
2023/06/11 05:59:28;;;;;;;0.32;0.32;;;;;;;22.17;56.19;101648.38;5095082;28;20004;-83
2023/06/11 06:01:54;;;;;;;0.00;0.00;;;;;;;22.23;56.10;101634.53;5093534;28;20036;-83
2023/06/11 06:04:20;;;;;;;0.17;0.17;;;;;;;22.31;55.49;101642.19;5094545;28;20054;-83
2023/06/11 06:06:46;;;;;;;0.40;0.30;;;;;;;22.38;55.63;101648.13;5096685;28;20020;-83
2023/06/11 06:09:12;;;;;;;0.32;0.32;;;;;;;22.43;56.09;101640.63;5094928;28;20481;-83
2023/06/11 06:11:38;;;;;;;0.05;0.05;;;;;;;22.49;55.42;101637.56;5104388;28;20106;-84
2023/06/11 06:14:04;;;;;;;0.55;0.50;;;;;;;22.56;55.21;101641.66;5100789;28;20036;-83
2023/06/11 06:16:31;;;;;;;0.10;0.10;;;;;;;22.62;55.76;101638.59;5104575;28;20032;-83
2023/06/11 06:18:57;;;;;;;0.10;0.10;;;;;;;22.70;55.38;101640.00;5096676;28;20019;-82
2023/06/11 06:21:23;;;;;;;0.28;0.28;;;;;;;22.75;55.87;101640.59;5096719;28;20040;-83
2023/06/11 06:23:51;;;;;;;1.50;1.40;;;;;;;22.82;55.46;101647.38;5086191;28;20145;-81
2023/06/11 06:26:17;;;;;;;0.98;0.60;;;;;;;22.90;55.23;101650.50;5081715;28;20028;-81
2023/06/11 06:28:43;;;;;;;0.25;0.25;;;;;;;22.96;55.98;101643.00;5083287;28;20035;-82
2023/06/11 06:31:13;;;;;;;0.00;0.00;;;;;;;23.06;54.51;101647.72;5084981;28;20089;-82
2023/06/11 06:33:40;;;;;;;0.10;0.10;;;;;;;23.15;54.25;101649.00;5081201;28;20034;-81
2023/06/11 06:36:06;;;;;;;0.00;0.00;;;;;;;23.22;54.26;101652.25;5088261;28;20615;-81
2023/06/11 06:38:32;;;;;;;0.10;0.10;;;;;;;23.28;54.67;101651.88;5092194;28;20039;-82
2023/06/11 06:40:59;;;;;;;0.32;0.30;;;;;;;23.37;54.12;101651.31;5079491;28;20158;-83
2023/06/11 06:43:25;;;;;;;0.73;0.57;;;;;;;23.43;53.76;101645.53;5082411;28;20028;-84
2023/06/11 06:45:51;;;;;;;0.40;0.40;;;;;;;23.46;54.09;101655.28;5074059;28;20021;-84
2023/06/11 06:48:17;;;;;;;0.57;0.57;;;;;;;23.52;53.39;101656.75;5075275;28;20044;-84
2023/06/11 06:50:43;;;;;;;0.30;0.30;;;;;;;23.53;53.66;101656.66;5082589;28;20032;-83
2023/06/11 06:53:09;;;;;;;0.10;0.10;;;;;;;23.67;53.30;101654.94;5091580;28;20039;-81
2023/06/11 06:55:35;;;;;;;0.08;0.08;;;;;;;23.70;53.50;101654.72;5096080;28;20291;-81
2023/06/11 06:58:04;;;;;;;2.08;1.42;;;;;;;23.82;53.43;101658.50;5094156;28;20033;-82
2023/06/11 07:00:30;;;;;;;1.25;0.55;;;;;;;23.86;52.86;101652.81;5110927;28;20012;-83
2023/06/11 07:02:56;;;;;;;0.47;0.47;;;;;;;23.96;52.74;101657.66;5101976;28;20035;-84
2023/06/11 07:05:25;;;;;;;0.17;0.17;;;;;;;24.00;52.60;101659.19;5108112;28;20020;-83
2023/06/11 07:07:51;;;;;;;0.50;0.50;;;;;;;24.05;52.14;101657.94;5095504;28;20036;-82
2023/06/11 07:10:18;;;;;;;0.20;0.20;;;;;;;24.14;52.15;101656.47;5091759;28;20026;-83
2023/06/11 07:12:44;;;;;;;0.20;0.20;;;;;;;24.22;52.07;101655.97;5083282;28;20074;-83
2023/06/11 07:15:10;;;;;;;0.17;0.17;;;;;;;24.29;52.38;101657.31;5088454;28;20032;-83
2023/06/11 07:17:37;;;;;;;0.20;0.20;;;;;;;24.38;52.34;101659.41;5086712;28;20382;-82
2023/06/11 07:20:04;;;;;;;0.20;0.20;;;;;;;24.44;51.99;101651.88;5077611;28;20077;-82
2023/06/11 07:22:31;;;;;;;0.68;0.68;;;;;;;24.54;51.75;101643.00;5077834;28;20027;-81
2023/06/11 07:25:02;;;;;;;0.20;0.20;;;;;;;24.69;51.84;101646.56;5092898;28;20020;-82
2023/06/11 07:27:29;;;;;;;1.08;0.98;;;;;;;24.77;51.76;101645.19;5093094;28;20028;-84
2023/06/11 07:29:55;;;;;;;0.40;0.40;;;;;;;24.84;51.92;101649.22;5086505;28;20031;-81
2023/06/11 07:32:21;;;;;;;0.10;0.10;;;;;;;24.96;51.25;101648.38;5083663;28;20054;-78
2023/06/11 07:34:47;;;;;;;0.52;0.28;;;;;;;25.07;51.16;101650.34;5085833;28;20040;-84
2023/06/11 07:37:13;;;;;;;0.20;0.20;;;;;;;25.15;51.29;101647.13;5084676;28;20039;-82
2023/06/11 07:39:39;;;;;;;0.38;0.38;;;;;;;25.25;51.15;101648.22;5083435;28;20040;-81
2023/06/11 07:42:06;;;;;;;0.10;0.10;;;;;;;25.37;50.85;101646.50;5092665;28;20120;-83
2023/06/11 07:44:35;;;;;;;0.10;0.10;;;;;;;25.48;51.40;101637.63;5084461;28;20029;-83
2023/06/11 07:47:01;;;;;;;0.10;0.10;;;;;;;25.60;50.95;101641.31;5094684;28;20025;-83
2023/06/11 07:49:30;;;;;;;0.70;0.70;;;;;;;25.72;50.54;101635.00;5098347;28;20026;-83
2023/06/11 07:51:56;;;;;;;0.10;0.10;;;;;;;25.80;50.99;101640.75;5089502;28;20038;-83
2023/06/11 07:54:22;;;;;;;0.05;0.05;;;;;;;25.92;50.29;101646.25;5095572;28;20039;-80
2023/06/11 07:56:49;;;;;;;0.28;0.28;;;;;;;26.02;50.09;101652.78;5093299;28;20046;-81
2023/06/11 07:59:15;;;;;;;1.45;0.65;;;;;;;26.10;49.66;101641.38;5095533;28;20055;-79
2023/06/11 08:01:41;;;;;;;0.10;0.10;;;;;;;26.20;49.60;101644.28;5092016;28;20030;-82
2023/06/11 08:04:07;;;;;;;0.10;0.10;;;;;;;26.32;49.59;101640.66;5086217;28;20033;-82
2023/06/11 08:06:35;;;;;;;0.10;0.10;;;;;;;26.38;48.91;101637.50;5093266;28;20060;-80
2023/06/11 08:09:01;;;;;;;0.52;0.52;;;;;;;26.47;49.99;101636.78;5091383;28;20056;-77
2023/06/11 08:11:27;;;;;;;0.10;0.10;;;;;;;26.57;49.74;101636.97;5084946;28;20449;-77
2023/06/11 08:13:53;;;;;;;0.32;0.32;;;;;;;26.67;50.52;101636.25;5095415;28;20041;-78
2023/06/11 08:16:19;;;;;;;0.00;0.00;;;;;;;26.77;49.29;101635.47;5081743;28;20119;-78
2023/06/11 08:18:45;;;;;;;0.60;0.52;;;;;;;26.85;48.95;101632.16;5092734;28;20020;-80
2023/06/11 08:21:11;;;;;;;0.25;0.25;;;;;;;26.97;48.45;101627.66;5084549;28;20613;-79
2023/06/11 08:23:39;;;;;;;0.57;0.45;;;;;;;27.03;48.83;101629.88;5079621;28;20392;-78
2023/06/11 08:26:05;;;;;;;0.40;0.22;;;;;;;27.12;48.68;101626.44;5089110;28;20057;-78
2023/06/11 08:28:31;;;;;;;6.65;1.23;;;;;;;27.20;48.40;101628.53;5099169;28;20028;-80
2023/06/11 08:30:57;;;;;;;0.73;0.55;;;;;;;27.28;47.49;101634.25;5090441;28;20518;-77
2023/06/11 08:33:24;;;;;;;0.68;0.68;;;;;;;27.38;47.90;101628.97;5081095;28;20047;-78
2023/06/11 08:35:50;;;;;;;0.15;0.15;;;;;;;27.48;47.58;101623.69;5096768;28;20154;-77
2023/06/11 08:38:16;;;;;;;0.75;0.63;;;;;;;27.56;48.37;101623.94;5086900;28;20085;-77
2023/06/11 08:40:42;;;;;;;0.20;0.20;;;;;;;27.64;48.01;101626.06;5100678;28;20074;-77
2023/06/11 08:43:10;;;;;;;0.20;0.20;;;;;;;27.75;47.76;101623.34;5107459;28;20108;-78
2023/06/11 08:45:36;;;;;;;0.50;0.50;;;;;;;27.86;47.11;101624.31;5088724;28;20206;-78
2023/06/11 08:48:04;;;;;;;0.20;0.20;;;;;;;27.98;47.98;101633.34;5095444;28;20119;-78
2023/06/11 08:50:31;;;;;;;10.90;1.48;;;;;;;28.06;47.95;101620.88;5095641;28;20413;-76
2023/06/11 08:53:01;;;;;;;0.50;0.50;;;;;;;28.19;47.72;101619.84;5087748;28;20035;-78
2023/06/11 08:55:29;;;;;;;0.60;0.60;;;;;;;28.26;47.08;101626.50;5098373;28;20033;-79
2023/06/11 08:57:55;;;;;;;2.72;0.30;;;;;;;28.37;46.69;101620.16;5099499;28;20036;-77
2023/06/11 09:00:22;;;;;;;0.50;0.50;;;;;;;28.45;46.22;101619.50;5086395;28;20523;-77
2023/06/11 09:02:49;;;;;;;0.20;0.20;;;;;;;28.49;46.31;101616.41;5095025;28;20024;-78
2023/06/11 09:05:15;;;;;;;0.47;0.47;;;;;;;28.64;46.53;101616.97;5083908;28;20024;-75
2023/06/11 09:07:57;;;;;;;0.30;0.30;;;;;;;28.77;45.41;101618.69;5087459;28;20020;-79
2023/06/11 09:10:23;;;;;;;0.80;0.80;;;;;;;28.81;45.65;101614.69;5093735;28;20486;-77
2023/06/11 09:12:50;;;;;;;2.20;0.50;;;;;;;28.88;46.03;101616.75;5097303;28;20070;-79
2023/06/11 09:15:17;;;;;;;1.23;0.77;;;;;;;28.95;44.84;101603.47;5102306;28;20084;-75
2023/06/11 09:17:46;;;;;;;0.52;0.52;;;;;;;29.10;45.16;101605.84;5094919;28;20036;-78
2023/06/11 09:20:16;;;;;;;0.13;0.13;;;;;;;29.19;45.30;101603.19;5098631;28;20155;-75
2023/06/11 09:22:43;;;;;;;0.35;0.35;;;;;;;29.29;45.91;101602.41;5082205;28;20099;-74
2023/06/11 09:25:11;;;;;;;0.10;0.10;;;;;;;29.42;45.80;101608.50;5085782;28;20111;-76
2023/06/11 09:27:40;;;;;;;0.82;0.77;;;;;;;29.53;45.72;101599.38;5081939;28;20032;-78
2023/06/11 09:30:16;;;;;;;0.30;0.30;;;;;;;29.60;43.79;101603.28;5085540;28;20039;-76
2023/06/11 09:32:45;;;;;;;0.15;0.15;;;;;;;29.65;45.07;101603.72;5079415;28;20024;-76
2023/06/11 09:35:13;;;;;;;0.32;0.32;;;;;;;29.74;45.10;101602.03;5078998;28;20393;-77
2023/06/11 09:37:49;;;;;;;0.32;0.28;;;;;;;29.90;44.99;101612.47;5078141;28;20056;-77
2023/06/11 09:40:18;;;;;;;0.63;0.63;;;;;;;30.00;44.76;101605.16;5083203;28;20038;-77
2023/06/11 09:42:47;;;;;;;1.10;0.65;;;;;;;30.12;44.62;101605.94;5083536;28;20129;-76
2023/06/11 09:45:16;;;;;;;0.20;0.20;;;;;;;30.20;44.32;101602.47;5084947;28;20089;-77
2023/06/11 09:47:44;;;;;;;0.10;0.10;;;;;;;30.28;43.50;101599.03;5086976;28;20032;-77
2023/06/11 09:50:13;;;;;;;4.45;1.55;;;;;;;30.36;43.58;101601.94;5084600;28;20032;-78
2023/06/11 09:52:41;;;;;;;0.30;0.30;;;;;;;30.42;43.82;101597.75;5088000;28;20035;-78
2023/06/11 09:55:08;;;;;;;0.25;0.20;;;;;;;30.47;42.40;101600.94;5086357;28;20028;-78
2023/06/11 09:57:36;;;;;;;0.25;0.25;;;;;;;30.57;42.81;101604.56;5091553;28;20111;-78
2023/06/11 10:00:03;;;;;;;0.95;0.95;;;;;;;30.70;42.86;101608.88;5090400;28;20067;-78
2023/06/11 10:02:29;;;;;;;0.30;0.30;;;;;;;30.77;41.24;101602.69;5095902;28;20477;-78
2023/06/11 10:04:55;;;;;;;0.35;0.35;;;;;;;30.86;42.09;101609.16;5089334;28;20065;-79
2023/06/11 10:07:23;;;;;;;0.38;0.38;;;;;;;30.93;42.00;101604.81;5090122;28;20043;-79
2023/06/11 10:09:52;;;;;;;0.38;0.38;;;;;;;31.04;43.00;101605.66;5084607;28;20038;-79
2023/06/11 10:12:24;;;;;;;0.30;0.30;;;;;;;31.14;42.24;101603.78;5086336;28;20035;-79
2023/06/11 10:14:52;;;;;;;0.55;0.55;;;;;;;31.20;42.11;101605.94;5089073;28;20029;-80
2023/06/11 10:17:21;;;;;;;0.60;0.60;;;;;;;31.29;42.35;101605.06;5080204;28;20389;-78
2023/06/11 10:19:49;;;;;;;0.30;0.30;;;;;;;31.35;41.06;101602.75;5087151;28;20036;-79
2023/06/11 10:22:30;;;;;;;0.30;0.30;;;;;;;31.47;41.57;101601.56;5091819;28;20044;-78
2023/06/11 10:25:01;;;;;;;0.20;0.20;;;;;;;31.56;41.20;101600.63;5092214;28;20027;-79
2023/06/11 10:27:43;;;;;;;0.17;0.17;;;;;;;31.65;41.13;101609.00;5096245;28;20388;-78
2023/06/11 10:30:10;;;;;;;0.73;0.73;;;;;;;31.55;39.94;101600.78;5086168;28;20039;-78
2023/06/11 10:32:46;;;;;;;0.32;0.32;;;;;;;31.61;40.22;101601.03;5085933;28;20032;-78
2023/06/11 10:35:20;;;;;;;0.10;0.10;;;;;;;31.71;40.61;101597.44;5080926;28;20388;-78
2023/06/11 10:37:47;;;;;;;0.20;0.20;;;;;;;31.79;40.04;101600.28;5085342;28;20642;-79
2023/06/11 10:40:14;;;;;;;0.45;0.40;;;;;;;31.87;40.40;101605.00;5082970;28;20405;-80
2023/06/11 10:42:43;;;;;;;0.10;0.10;;;;;;;31.92;39.27;101600.78;5079654;28;20462;-80
2023/06/11 10:45:11;;;;;;;0.73;0.73;;;;;;;31.94;39.97;101590.53;5080401;28;20028;-77
2023/06/11 10:47:47;;;;;;;0.52;0.52;;;;;;;32.09;39.80;101593.63;5085762;28;20117;-78
2023/06/11 10:50:15;;;;;;;0.17;0.17;;;;;;;32.12;39.42;101595.19;5087036;28;20035;-78
2023/06/11 10:52:59;;;;;;;0.38;0.32;;;;;;;32.25;37.93;101590.22;5078701;28;20432;-77
2023/06/11 10:55:31;;;;;;;0.45;0.45;;;;;;;32.28;38.22;101593.66;5086301;28;20059;-79
2023/06/11 10:57:58;;;;;;;0.93;0.93;;;;;;;32.31;38.20;101587.88;5087583;28;20027;-78
2023/06/11 11:00:28;;;;;;;0.70;0.70;;;;;;;32.35;38.69;101584.66;5088085;28;20039;-79
2023/06/11 11:02:57;;;;;;;0.30;0.30;;;;;;;32.41;38.46;101588.66;5089264;28;20017;-79
2023/06/11 11:05:23;;;;;;;0.43;0.43;;;;;;;32.45;38.12;101573.63;5084560;28;20032;-80
2023/06/11 11:07:49;;;;;;;1.05;1.02;;;;;;;32.60;38.89;101582.16;5086659;28;20460;-76
2023/06/11 11:10:19;;;;;;;0.70;0.70;;;;;;;32.68;38.49;101584.09;5082132;28;20059;-77
2023/06/11 11:12:46;;;;;;;0.32;0.32;;;;;;;32.80;38.01;101577.38;5089594;28;20020;-79
2023/06/11 11:15:12;;;;;;;0.00;0.00;;;;;;;32.85;36.94;101580.50;5093153;28;20085;-79
2023/06/11 11:17:41;;;;;;;0.40;0.40;;;;;;;32.96;36.64;101573.00;5089489;28;20088;-79
2023/06/11 11:20:09;;;;;;;0.00;0.00;;;;;;;33.03;37.28;101569.47;5089025;28;20032;-80
2023/06/11 11:22:36;;;;;;;0.57;0.57;;;;;;;33.09;35.49;101565.22;5092317;28;20016;-80
2023/06/11 11:25:04;;;;;;;0.43;0.43;;;;;;;33.14;36.98;101562.84;5093138;28;20020;-78
2023/06/11 11:27:32;;;;;;;0.55;0.55;;;;;;;33.19;35.78;101571.44;5091945;28;20026;-79
2023/06/11 11:30:01;;;;;;;0.20;0.20;;;;;;;33.34;36.79;101574.47;5092662;28;20022;-79
2023/06/11 11:32:30;;;;;;;0.75;0.30;;;;;;;33.45;35.04;101573.34;5093495;28;20024;-79
2023/06/11 11:34:59;;;;;;;0.10;0.10;;;;;;;33.66;36.53;101569.31;5093343;28;20051;-79
2023/06/11 11:37:28;;;;;;;0.00;0.00;;;;;;;33.75;35.85;101565.56;5094369;28;20047;-78
2023/06/11 11:39:55;;;;;;;0.17;0.17;;;;;;;33.85;34.61;101566.31;5093200;28;20031;-77
2023/06/11 11:42:23;;;;;;;0.22;0.22;;;;;;;33.94;34.56;101569.94;5095620;28;20039;-79
2023/06/11 11:44:53;;;;;;;0.45;0.40;;;;;;;34.02;34.76;101561.72;5092551;28;20025;-79
2023/06/11 11:47:21;;;;;;;0.15;0.15;;;;;;;34.11;35.21;101559.88;5093977;28;20024;-80
2023/06/11 11:49:55;;;;;;;0.20;0.20;;;;;;;34.27;35.33;101558.16;5094597;28;20425;-80
2023/06/11 11:52:23;;;;;;;0.35;0.32;;;;;;;34.29;34.73;101558.84;5091590;28;20374;-80
2023/06/11 11:54:50;;;;;;;0.10;0.10;;;;;;;34.38;35.34;101549.59;5090284;28;20020;-77
2023/06/11 11:57:25;;;;;;;0.70;0.45;;;;;;;34.54;35.15;101554.25;5089557;28;20051;-80
2023/06/11 11:59:53;;;;;;;3.10;0.75;;;;;;;34.62;34.57;101561.63;5087905;28;20039;-80
2023/06/11 12:02:27;;;;;;;0.52;0.47;;;;;;;34.72;33.54;101548.56;5092022;28;20054;-80
2023/06/11 12:04:57;;;;;;;0.80;0.80;;;;;;;34.75;33.11;101545.47;5089455;28;20050;-78
2023/06/11 12:07:26;;;;;;;0.15;0.15;;;;;;;34.79;33.74;101541.34;5090192;28;20031;-80